CheckWX is a tool to help pilots better visualize weather data.  It is not intended as a substitute for an official pre-flight weather briefing.

07:12:29 UTC

KBUY METAR
Burlington-Alamance Regional Airport
Burlington, North Carolina, USA
Current

18 mins ago

KBUY 230654Z AUTO 21003KT 10SM CLR 21/16 A3009 RMK AO2 SLP183 T02060156
Observed
Sep-23 @ 06:54 UTC
Wind
  • 210° at 3 KTS
Visibility
10 SM
Flight Rules
VFR
Cloud Levels
  • Clear skies
Temperature
21°C / 70°F
Dewpoint
16°C / 61°F
Humidity
73%
Altimeter
30.09" Hg
Pressure
1018.92 hPa
Previous

1 hour ago

KBUY 230554Z AUTO 22005KT 10SM CLR 22/16 A3011 RMK AO2 SLP187 T02170161 10267 20217 58006
Observed
Sep-23 @ 05:54 UTC
Wind
  • 220° at 5 KTS
Visibility
10 SM
Flight Rules
VFR
Cloud Levels
  • Clear skies
Temperature
22°C / 72°F
Dewpoint
16°C / 61°F
Humidity
69%
Altimeter
30.11" Hg
Pressure
1019.62 hPa
Previous

2 hours ago

KBUY 230454Z AUTO 22003KT 10SM CLR 22/16 A3011 RMK AO2 SLP189 T02220161 403440156
Observed
Sep-23 @ 04:54 UTC
Wind
  • 220° at 3 KTS
Visibility
10 SM
Flight Rules
VFR
Cloud Levels
  • Clear skies
Temperature
22°C / 72°F
Dewpoint
16°C / 61°F
Humidity
69%
Altimeter
30.11" Hg
Pressure
1019.62 hPa